createdAt,value
2024-03-09T00:04:17.405Z,19.50
2024-03-09T00:14:17.724Z,17.30
2024-03-09T00:24:17.668Z,11.40
2024-03-09T00:34:18.893Z,13.50
2024-03-09T00:44:18.073Z,19.10
2024-03-09T00:54:19.382Z,25.30
2024-03-09T01:04:18.347Z,26.10
2024-03-09T01:14:18.584Z,28.70
2024-03-09T01:24:18.755Z,33.00
2024-03-09T01:34:22.126Z,29.80
2024-03-09T01:44:19.265Z,36.10
2024-03-09T01:54:19.636Z,32.70
2024-03-09T02:04:19.396Z,34.30
2024-03-09T02:14:20.612Z,35.80
2024-03-09T02:24:19.817Z,34.70
2024-03-09T02:34:20.069Z,35.80
2024-03-09T02:44:20.245Z,37.10
2024-03-09T02:54:20.755Z,36.70
2024-03-09T03:04:20.546Z,32.90
2024-03-09T03:14:20.852Z,37.30
2024-03-09T03:24:20.809Z,36.70
2024-03-09T03:34:21.093Z,34.70
2024-03-09T03:44:21.313Z,34.60
2024-03-09T03:54:21.346Z,35.70
2024-03-09T04:04:21.545Z,34.80
2024-03-09T04:14:21.822Z,32.70
2024-03-09T04:24:21.825Z,38.40
2024-03-09T04:34:22.081Z,38.60
2024-03-09T04:44:27.723Z,41.20
2024-03-09T04:54:23.475Z,41.40
2024-03-09T05:04:26.398Z,46.20
2024-03-09T05:14:22.894Z,78.50
2024-03-09T05:24:23.110Z,45.40
2024-03-09T05:34:23.267Z,49.10
2024-03-09T05:44:23.611Z,45.90
2024-03-09T05:54:23.627Z,48.20
2024-03-09T06:04:24.910Z,42.80
2024-03-09T06:14:24.132Z,48.60
2024-03-09T06:24:24.330Z,44.80
2024-03-09T06:34:24.526Z,53.80
2024-03-09T06:44:24.807Z,61.50
2024-03-09T06:54:24.986Z,38.90
2024-03-09T07:04:25.584Z,37.40
2024-03-09T07:14:25.360Z,43.10
2024-03-09T07:24:25.658Z,43.30
2024-03-09T07:34:25.686Z,33.10
2024-03-09T07:44:26.058Z,55.10
2024-03-09T07:54:25.993Z,29.70
2024-03-09T08:04:26.190Z,23.90
2024-03-09T08:14:26.373Z,25.90
2024-03-09T08:24:26.552Z,27.00
2024-03-09T08:34:26.741Z,27.20
2024-03-09T08:44:27.034Z,25.70
2024-03-09T08:54:27.302Z,19.90
2024-03-09T09:04:29.301Z,20.40
2024-03-09T09:14:27.460Z,22.50
2024-03-09T09:24:27.682Z,15.60
2024-03-09T09:34:27.844Z,14.60
2024-03-09T09:44:28.049Z,12.10
2024-03-09T09:54:28.353Z,12.60
2024-03-09T10:04:28.413Z,11.30
2024-03-09T10:14:28.378Z,9.70
2024-03-09T10:24:28.694Z,9.10
2024-03-09T10:34:28.799Z,6.50
2024-03-09T10:44:29.014Z,7.50
2024-03-09T10:54:29.187Z,11.60
2024-03-09T11:04:29.366Z,5.00
2024-03-09T11:14:29.573Z,0.90
2024-03-09T11:24:29.751Z,0.50
2024-03-09T11:34:29.925Z,2.20
2024-03-09T11:44:30.178Z,0.10
2024-03-09T11:54:30.143Z,6.10
2024-03-09T12:04:30.413Z,0.20
2024-03-09T12:14:30.371Z,0.10
2024-03-09T12:24:30.573Z,0.10
2024-03-09T12:34:30.762Z,1.30
2024-03-09T12:44:33.254Z,0.10
2024-03-09T12:54:31.016Z,0.90
2024-03-09T13:04:31.203Z,0.20
2024-03-09T13:14:31.499Z,0.90
2024-03-09T13:24:32.729Z,0.40
2024-03-09T13:34:32.602Z,0.50
2024-03-09T13:44:31.919Z,0.20
2024-03-09T13:54:32.012Z,0.40
2024-03-09T14:04:32.241Z,0.30
2024-03-09T14:14:32.587Z,2.10
2024-03-09T14:24:32.623Z,0.10
2024-03-09T14:34:32.804Z,0.40
2024-03-09T14:44:39.691Z,0.90
2024-03-09T14:54:33.808Z,4.00
2024-03-09T15:04:33.251Z,16.10
2024-03-09T15:14:33.474Z,2.90
2024-03-09T15:24:33.610Z,2.30
2024-03-09T15:34:33.781Z,4.60
2024-03-09T15:44:34.012Z,3.10
2024-03-09T15:54:34.173Z,3.00
2024-03-09T16:04:34.450Z,2.20
2024-03-09T16:14:34.684Z,1.20
2024-03-09T16:24:39.037Z,0.20
2024-03-09T16:34:35.001Z,0.20
2024-03-09T16:44:35.230Z,0.50
2024-03-09T16:54:35.392Z,0.20
2024-03-09T17:04:35.677Z,2.50
2024-03-09T17:14:35.841Z,1.60
2024-03-09T17:24:35.734Z,0.20
2024-03-09T17:34:35.953Z,1.30
2024-03-09T17:44:36.222Z,0.70
2024-03-09T17:54:36.374Z,1.80
2024-03-09T18:04:36.598Z,2.60
2024-03-09T18:14:36.853Z,1.40
2024-03-09T18:24:37.017Z,1.50
2024-03-09T18:34:37.181Z,0.40
2024-03-09T18:44:37.433Z,0.50
2024-03-09T18:54:37.384Z,0.40
2024-03-09T19:04:37.703Z,0.30
2024-03-09T19:14:37.857Z,1.80
2024-03-09T19:24:38.075Z,7.20
2024-03-09T19:34:38.222Z,0.40
2024-03-09T19:44:38.437Z,0.30
2024-03-09T19:54:38.602Z,1.40
2024-03-09T20:04:39.121Z,0.20
2024-03-09T20:14:38.856Z,0.20
2024-03-09T20:24:39.064Z,0.70
2024-03-09T20:34:39.303Z,0.20
2024-03-09T20:44:39.558Z,0.10
2024-03-09T20:54:39.521Z,0.10
2024-03-09T21:04:39.748Z,0.30
2024-03-09T21:14:39.887Z,1.90
2024-03-09T21:24:40.081Z,0.10
2024-03-09T21:34:40.277Z,0.10
2024-03-09T21:44:40.552Z,0.20
2024-03-09T21:54:40.510Z,1.30
2024-03-09T22:04:40.894Z,1.80
2024-03-09T22:14:40.854Z,2.10
2024-03-09T22:24:41.086Z,0.60
2024-03-09T22:34:41.327Z,0.40
2024-03-09T22:44:41.556Z,3.00
2024-03-09T22:54:41.737Z,5.00
2024-03-09T23:04:41.993Z,0.20
2024-03-09T23:14:42.050Z,1.90
2024-03-09T23:24:42.298Z,1.40
2024-03-09T23:34:42.508Z,2.40
2024-03-09T23:44:42.775Z,0.20
2024-03-09T23:54:42.938Z,0.20
